createdAt,value
2019-03-03T00:02:02.396Z,100522.09
2019-03-03T00:04:28.268Z,100519.48
2019-03-03T00:06:54.275Z,100517.28
2019-03-03T00:09:20.154Z,100515.55
2019-03-03T00:11:46.016Z,100512.95
2019-03-03T00:14:12.099Z,100520.29
2019-03-03T00:16:37.959Z,100515.92
2019-03-03T00:19:03.930Z,100506.83
2019-03-03T00:21:30.279Z,100506.34
2019-03-03T00:23:56.319Z,100503.25
2019-03-03T00:26:22.177Z,100498.93
2019-03-03T00:28:48.209Z,100506.25
2019-03-03T00:31:15.031Z,100503.16
2019-03-03T00:33:41.002Z,100502.72
2019-03-03T00:36:07.109Z,100507.47
2019-03-03T00:38:34.874Z,100498.41
2019-03-03T00:41:14.569Z,100506.99
2019-03-03T00:43:42.348Z,100505.68
2019-03-03T00:46:18.921Z,100506.98
2019-03-03T00:48:46.706Z,100508.27
2019-03-03T00:51:17.105Z,100513.42
2019-03-03T00:53:50.661Z,100520.31
2019-03-03T00:56:18.528Z,100523.77
2019-03-03T00:58:46.275Z,100521.16
2019-03-03T01:01:20.104Z,100518.98
2019-03-03T01:03:47.869Z,100514.67
2019-03-03T01:06:15.621Z,100512.50
2019-03-03T01:08:52.275Z,100506.83
2019-03-03T01:11:20.106Z,100506.33
2019-03-03T01:13:50.771Z,100508.38
2019-03-03T01:16:35.190Z,100508.32
2019-03-03T01:19:14.706Z,100510.88
2019-03-03T01:21:54.407Z,100512.14
2019-03-03T01:24:25.122Z,100505.66
2019-03-03T01:26:50.980Z,100509.92
2019-03-03T01:29:16.930Z,100505.61
2019-03-03T01:31:42.790Z,100506.48
2019-03-03T01:34:08.684Z,100507.73
2019-03-03T01:36:34.655Z,100501.27
2019-03-03T01:39:00.535Z,100497.79
2019-03-03T01:41:26.611Z,100500.36
2019-03-03T01:43:52.722Z,100499.02
2019-03-03T01:46:18.572Z,100499.38
2019-03-03T01:48:44.415Z,100496.77
2019-03-03T01:51:10.440Z,100496.71
2019-03-03T01:53:36.318Z,100497.09
2019-03-03T01:56:02.660Z,100495.77
2019-03-03T01:58:28.681Z,100493.58
2019-03-03T02:00:54.583Z,100489.59
2019-03-03T02:03:20.550Z,100493.86
2019-03-03T02:05:46.588Z,100495.14
2019-03-03T02:08:12.517Z,100499.45
2019-03-03T02:10:38.421Z,100490.29
2019-03-03T02:13:04.411Z,100503.66
2019-03-03T02:15:30.363Z,100508.83
2019-03-03T02:17:56.248Z,100510.98
2019-03-03T02:20:22.358Z,100518.73
2019-03-03T02:22:48.230Z,100515.25
2019-03-03T02:25:14.196Z,100523.44
2019-03-03T02:27:40.394Z,100527.30
2019-03-03T02:30:08.153Z,100526.42
2019-03-03T02:32:34.145Z,100529.91
2019-03-03T02:35:00.324Z,100529.02
2019-03-03T02:37:26.417Z,100545.39
2019-03-03T02:39:52.317Z,100544.94
2019-03-03T02:42:18.372Z,100548.41
2019-03-03T02:44:44.446Z,100552.24
2019-03-03T02:47:10.359Z,100551.34
2019-03-03T02:49:36.350Z,100556.50
2019-03-03T02:52:02.320Z,100556.91
2019-03-03T02:54:28.276Z,100559.45
2019-03-03T02:56:54.275Z,100564.11
2019-03-03T02:59:20.122Z,100564.45
2019-03-03T03:01:47.938Z,100563.56
2019-03-03T03:04:13.999Z,100568.22
2019-03-03T03:06:44.729Z,100562.57
2019-03-03T03:09:18.299Z,100568.98
2019-03-03T03:11:51.691Z,100559.02
2019-03-03T03:14:34.662Z,100557.30
2019-03-03T03:17:05.103Z,100555.56
2019-03-03T03:19:47.754Z,100553.78
2019-03-03T03:22:24.624Z,100563.70
2019-03-03T03:25:08.849Z,100559.80
2019-03-03T03:27:52.925Z,100573.13
2019-03-03T03:30:20.848Z,100574.78
2019-03-03T03:33:05.155Z,100575.61
2019-03-03T03:35:33.097Z,100574.70
2019-03-03T03:38:15.657Z,100569.97
2019-03-03T03:40:46.448Z,100576.83
2019-03-03T03:43:14.308Z,100565.19
2019-03-03T03:45:54.144Z,100561.34
2019-03-03T03:48:27.991Z,100571.33
2019-03-03T03:51:10.610Z,100567.89
2019-03-03T03:53:41.021Z,100563.11
2019-03-03T03:56:17.978Z,100500.49
2019-03-03T03:58:51.523Z,100572.94
2019-03-03T04:01:19.572Z,100572.86
2019-03-03T04:03:49.964Z,100568.01
2019-03-03T04:06:17.967Z,100566.62
2019-03-03T04:08:45.818Z,100566.95
2019-03-03T04:11:25.339Z,100583.67
2019-03-03T04:13:59.314Z,100565.17
2019-03-03T04:16:27.286Z,100560.84
2019-03-03T04:19:04.142Z,100561.64
2019-03-03T04:21:37.564Z,100558.64
2019-03-03T04:24:14.450Z,100551.73
2019-03-03T04:26:42.196Z,100555.63
2019-03-03T04:29:12.810Z,100542.31
2019-03-03T04:31:43.627Z,100544.94
2019-03-03T04:34:14.346Z,100544.12
2019-03-03T04:36:58.509Z,100540.69
2019-03-03T04:39:26.276Z,100549.33
2019-03-03T04:42:09.206Z,100544.61
2019-03-03T04:44:36.965Z,100537.28
2019-03-03T04:47:21.739Z,100533.84
2019-03-03T04:50:04.296Z,100527.78
2019-03-03T04:52:37.757Z,100528.61
2019-03-03T04:55:21.591Z,100523.81
2019-03-03T04:57:55.399Z,100521.23
2019-03-03T05:00:34.938Z,100513.08
2019-03-03T05:03:11.785Z,100521.67
2019-03-03T05:05:56.118Z,100516.48
2019-03-03T05:08:26.898Z,100517.34
2019-03-03T05:10:54.666Z,100521.64
2019-03-03T05:13:22.542Z,100517.77
2019-03-03T05:16:06.685Z,100519.95
2019-03-03T05:18:43.201Z,100519.92
2019-03-03T05:21:09.305Z,100518.22
2019-03-03T05:23:35.279Z,100516.00
2019-03-03T05:26:01.146Z,100518.96
2019-03-03T05:28:27.177Z,100515.54
2019-03-03T05:30:53.113Z,100509.50
2019-03-03T05:33:19.006Z,100512.10
2019-03-03T05:35:45.272Z,100508.26
2019-03-03T05:38:11.074Z,100514.30
2019-03-03T05:40:36.961Z,100514.25
2019-03-03T05:43:03.056Z,100521.94
2019-03-03T05:45:28.867Z,100513.67
2019-03-03T05:47:54.831Z,100517.16
2019-03-03T05:50:20.797Z,100514.58
2019-03-03T05:52:46.679Z,100513.75
2019-03-03T05:55:12.535Z,100510.71
2019-03-03T05:57:38.488Z,100505.14
2019-03-03T06:00:06.353Z,100505.14
2019-03-03T06:02:32.259Z,100499.98
2019-03-03T06:04:58.245Z,100505.55
2019-03-03T06:07:24.089Z,100504.67
2019-03-03T06:09:49.961Z,100518.02
2019-03-03T06:12:15.948Z,100508.11
2019-03-03T06:14:41.811Z,100515.84
2019-03-03T06:17:07.831Z,100521.86
2019-03-03T06:19:33.848Z,100520.98
2019-03-03T06:21:59.699Z,100513.27
2019-03-03T06:24:25.807Z,100509.40
2019-03-03T06:26:51.952Z,100514.53
2019-03-03T06:29:17.788Z,100513.24
2019-03-03T06:31:43.661Z,100512.34
2019-03-03T06:34:09.817Z,100517.91
2019-03-03T06:36:35.699Z,100515.25
2019-03-03T06:39:01.544Z,100521.67
2019-03-03T06:41:27.501Z,100508.75
2019-03-03T06:43:53.358Z,100526.83
2019-03-03T06:46:19.236Z,100519.50
2019-03-03T06:48:45.220Z,100517.36
2019-03-03T06:51:11.080Z,100520.35
2019-03-03T06:53:36.957Z,100520.38
2019-03-03T06:56:03.059Z,100522.14
2019-03-03T06:58:28.895Z,100516.54
2019-03-03T07:00:54.745Z,100507.10
2019-03-03T07:03:20.739Z,100431.62
2019-03-03T07:05:46.688Z,100504.52
2019-03-03T07:08:12.550Z,100497.28
2019-03-03T07:10:38.603Z,100492.99
2019-03-03T07:13:04.437Z,100480.56
2019-03-03T07:15:30.282Z,100483.22
2019-03-03T07:17:56.257Z,100485.35
2019-03-03T07:20:22.122Z,100482.82
2019-03-03T07:22:47.963Z,100482.44
2019-03-03T07:25:14.100Z,100491.95
2019-03-03T07:27:40.078Z,100476.52
2019-03-03T07:30:10.782Z,100476.16
2019-03-03T07:32:38.763Z,100474.91
2019-03-03T07:35:04.910Z,100474.91
2019-03-03T07:37:30.761Z,100469.36
2019-03-03T07:39:56.743Z,100466.80
2019-03-03T07:42:22.566Z,100466.41
2019-03-03T07:44:48.425Z,100455.67
2019-03-03T07:47:14.410Z,100459.17
2019-03-03T07:49:40.271Z,100454.94
2019-03-03T07:52:06.101Z,100454.13
2019-03-03T07:54:32.058Z,100452.02
2019-03-03T07:56:58.020Z,100438.33
2019-03-03T07:59:23.905Z,100443.11
2019-03-03T08:01:50.022Z,100438.88
2019-03-03T08:04:15.889Z,100442.80
2019-03-03T08:06:41.737Z,100437.69
2019-03-03T08:09:07.810Z,100434.32
2019-03-03T08:11:33.790Z,100436.96
2019-03-03T08:13:59.660Z,100430.98
2019-03-03T08:16:25.595Z,100431.03
2019-03-03T08:18:51.448Z,100431.52
2019-03-03T08:21:17.439Z,100433.31
2019-03-03T08:23:43.416Z,100433.37
2019-03-03T08:26:09.291Z,100433.42
2019-03-03T08:28:35.139Z,100443.36
2019-03-03T08:31:01.253Z,100427.91
2019-03-03T08:33:27.090Z,100435.75
2019-03-03T08:35:53.111Z,100423.75
2019-03-03T08:38:19.249Z,100422.50
2019-03-03T08:40:45.133Z,100418.21
2019-03-03T08:43:12.923Z,100412.26
2019-03-03T08:45:43.477Z,100414.02
2019-03-03T08:48:13.837Z,100410.20
2019-03-03T08:50:50.643Z,100412.41
2019-03-03T08:53:36.474Z,100412.44
2019-03-03T08:56:07.323Z,100394.77
2019-03-03T08:58:35.071Z,100401.77
2019-03-03T09:01:02.937Z,100402.66
2019-03-03T09:03:33.557Z,100405.73
2019-03-03T09:06:03.947Z,100403.61
2019-03-03T09:08:34.760Z,100398.05
2019-03-03T09:11:14.286Z,100399.38
2019-03-03T09:13:48.048Z,100398.12
2019-03-03T09:16:24.506Z,100391.70
2019-03-03T09:18:55.436Z,100395.63
2019-03-03T09:21:39.452Z,100385.30
2019-03-03T09:24:13.316Z,100379.74
2019-03-03T09:26:43.956Z,100378.06
2019-03-03T09:29:11.729Z,100372.91
2019-03-03T09:31:48.326Z,100372.95
2019-03-03T09:34:16.084Z,100368.63
2019-03-03T09:36:43.964Z,100363.94
2019-03-03T09:39:12.014Z,100366.55
2019-03-03T09:41:56.236Z,100380.83
2019-03-03T09:44:39.179Z,100379.13
2019-03-03T09:47:12.544Z,100371.39
2019-03-03T09:49:52.529Z,100372.27
2019-03-03T09:52:22.912Z,100369.30
2019-03-03T09:54:53.713Z,100362.00
2019-03-03T09:57:33.265Z,100363.33
2019-03-03T10:00:07.130Z,100354.28
2019-03-03T10:02:34.878Z,100349.53
2019-03-03T10:05:19.292Z,100341.30
2019-03-03T10:08:03.633Z,100338.70
2019-03-03T10:10:34.040Z,100332.66
2019-03-03T10:13:07.891Z,100326.56
2019-03-03T10:15:38.577Z,100331.30
2019-03-03T10:18:12.333Z,100326.52
2019-03-03T10:20:55.090Z,100332.97
2019-03-03T10:23:25.944Z,100326.00
2019-03-03T10:25:56.345Z,100326.36
2019-03-03T10:28:30.118Z,100328.50
2019-03-03T10:31:00.592Z,100327.15
2019-03-03T10:33:40.577Z,100323.20
2019-03-03T10:36:23.095Z,100324.91
2019-03-03T10:38:59.929Z,100324.86
2019-03-03T10:41:27.820Z,100328.23
2019-03-03T10:44:04.556Z,100316.91
2019-03-03T10:46:34.964Z,100322.05
2019-03-03T10:49:02.835Z,100312.01
2019-03-03T10:51:36.794Z,100311.12
2019-03-03T10:54:22.874Z,100304.98
2019-03-03T10:56:50.881Z,100314.08
2019-03-03T10:59:18.722Z,100304.44
2019-03-03T11:02:01.598Z,100294.41
2019-03-03T11:04:29.354Z,100302.93
2019-03-03T11:07:06.177Z,100295.88
2019-03-03T11:09:40.101Z,100287.04
2019-03-03T11:12:16.642Z,100288.26
2019-03-03T11:15:00.798Z,100280.80
2019-03-03T11:17:40.830Z,100266.75
2019-03-03T11:20:14.938Z,100263.58
2019-03-03T11:22:59.382Z,100253.81
2019-03-03T11:25:27.220Z,100253.20
2019-03-03T11:27:57.627Z,100248.67
2019-03-03T11:30:28.190Z,100245.00
2019-03-03T11:33:07.724Z,100245.76
2019-03-03T11:35:41.331Z,100238.62
2019-03-03T11:38:09.078Z,100240.17
2019-03-03T11:40:45.631Z,100237.34
2019-03-03T11:43:28.374Z,100191.56
2019-03-03T11:46:05.352Z,100182.83
2019-03-03T11:48:35.859Z,100231.75
2019-03-03T11:51:18.534Z,100219.05
2019-03-03T11:53:56.189Z,100226.27
2019-03-03T11:56:35.919Z,100222.64
2019-03-03T11:59:09.617Z,100219.91
2019-03-03T12:01:40.421Z,100211.95
2019-03-03T12:04:10.754Z,100197.52
2019-03-03T12:06:41.385Z,100199.22
2019-03-03T12:09:27.566Z,100202.24
2019-03-03T12:12:10.216Z,100201.31
2019-03-03T12:14:40.795Z,100205.11
2019-03-03T12:17:24.840Z,100200.72
2019-03-03T12:20:09.324Z,100201.12
2019-03-03T12:22:39.709Z,100201.56
2019-03-03T12:25:24.103Z,100198.10
2019-03-03T12:27:55.069Z,100196.89
2019-03-03T12:30:32.036Z,100198.70
2019-03-03T12:32:59.889Z,100202.31
2019-03-03T12:35:33.789Z,100201.93
2019-03-03T12:38:01.547Z,100208.09
2019-03-03T12:40:29.293Z,100202.92
2019-03-03T12:42:57.358Z,100200.43
2019-03-03T12:45:37.112Z,100197.15
2019-03-03T12:48:21.726Z,100195.70
2019-03-03T12:51:01.188Z,100195.81
2019-03-03T12:53:29.134Z,100190.17
2019-03-03T12:56:13.201Z,100194.15
2019-03-03T12:58:41.085Z,100182.42
2019-03-03T13:01:08.930Z,100183.81
2019-03-03T13:03:36.824Z,100190.83
2019-03-03T13:06:04.879Z,100177.77
2019-03-03T13:08:35.287Z,100177.36
2019-03-03T13:11:08.922Z,100181.33
2019-03-03T13:13:52.932Z,100179.34
2019-03-03T13:16:20.872Z,100177.81
2019-03-03T13:19:05.184Z,100174.84
2019-03-03T13:21:45.061Z,100165.30
2019-03-03T13:24:15.442Z,100173.53
2019-03-03T13:26:55.132Z,100162.31
2019-03-03T13:29:25.779Z,100163.69
2019-03-03T13:32:05.711Z,100157.22
2019-03-03T13:34:49.940Z,100154.69
2019-03-03T13:37:26.778Z,100154.76
2019-03-03T13:39:57.365Z,100155.70
2019-03-03T13:42:28.255Z,100153.09
2019-03-03T13:44:54.235Z,100147.00
2019-03-03T13:47:20.085Z,100156.17
2019-03-03T13:49:46.225Z,100153.59
2019-03-03T13:52:12.181Z,100148.81
2019-03-03T13:54:38.133Z,100141.42
2019-03-03T13:57:04.205Z,100135.41
2019-03-03T13:59:30.071Z,100130.31
2019-03-03T14:01:56.156Z,100130.36
2019-03-03T14:04:22.294Z,100132.97
2019-03-03T14:06:48.250Z,100126.03
2019-03-03T14:09:14.199Z,100129.03
2019-03-03T14:11:40.219Z,100126.86
2019-03-03T14:14:06.080Z,100122.05
2019-03-03T14:16:32.057Z,100113.36
2019-03-03T14:18:58.219Z,100116.06
2019-03-03T14:21:24.185Z,100118.79
2019-03-03T14:23:50.313Z,100107.22
2019-03-03T14:26:16.499Z,100105.09
2019-03-03T14:28:42.478Z,100110.41
2019-03-03T14:31:08.441Z,100105.29
2019-03-03T14:33:34.496Z,100100.08
2019-03-03T14:36:00.362Z,100105.27
2019-03-03T14:38:26.320Z,100099.22
2019-03-03T14:40:52.521Z,100102.28
2019-03-03T14:43:18.456Z,100106.66
2019-03-03T14:45:44.332Z,100101.45
2019-03-03T14:48:10.380Z,100097.49
2019-03-03T14:50:36.420Z,100098.75
2019-03-03T14:53:02.422Z,100100.55
2019-03-03T14:55:28.354Z,100096.73
2019-03-03T14:57:54.225Z,100092.38
2019-03-03T15:00:28.756Z,100092.30
2019-03-03T15:02:54.912Z,100086.27
2019-03-03T15:05:21.817Z,100081.05
2019-03-03T15:07:47.908Z,100078.91
2019-03-03T15:10:13.862Z,100073.23
2019-03-03T15:12:39.712Z,100067.59
2019-03-03T15:15:10.602Z,100059.75
2019-03-03T15:17:36.538Z,100067.55
2019-03-03T15:20:03.197Z,100067.14
2019-03-03T15:22:29.240Z,100060.59
2019-03-03T15:24:55.110Z,100058.42
2019-03-03T15:27:20.961Z,100054.94
2019-03-03T15:29:47.009Z,100054.10
2019-03-03T15:32:12.904Z,100053.69
2019-03-03T15:34:38.839Z,100049.82
2019-03-03T15:37:06.893Z,100047.28
2019-03-03T15:39:32.868Z,100046.01
2019-03-03T15:41:58.706Z,100047.84
2019-03-03T15:44:24.650Z,100047.42
2019-03-03T15:46:50.523Z,100037.89
2019-03-03T15:49:16.477Z,100034.39
2019-03-03T15:51:42.620Z,100034.39
2019-03-03T15:54:08.599Z,100024.87
2019-03-03T15:56:34.563Z,100024.00
2019-03-03T15:59:00.644Z,100025.78
2019-03-03T16:01:26.570Z,100021.00
2019-03-03T16:03:52.552Z,100011.93
2019-03-03T16:06:18.620Z,100008.48
2019-03-03T16:08:44.576Z,100002.44
2019-03-03T16:11:10.536Z,100005.58
2019-03-03T16:13:36.616Z,99999.95
2019-03-03T16:16:02.904Z,100000.39
2019-03-03T16:18:29.175Z,99987.84
2019-03-03T16:20:55.145Z,99990.88
2019-03-03T16:23:23.897Z,99990.95
2019-03-03T16:25:50.033Z,99990.56
2019-03-03T16:28:16.089Z,99985.78
2019-03-03T16:30:41.974Z,99984.50
2019-03-03T16:33:07.985Z,99990.22
2019-03-03T16:35:34.135Z,99991.97
2019-03-03T16:38:00.091Z,99983.77
2019-03-03T16:40:26.061Z,99990.31
2019-03-03T16:42:52.208Z,99989.52
2019-03-03T16:45:18.425Z,99987.79
2019-03-03T16:47:44.368Z,99983.09
2019-03-03T16:50:22.649Z,99978.36
2019-03-03T16:52:48.699Z,99973.19
2019-03-03T16:55:16.439Z,99976.28
2019-03-03T16:57:42.589Z,99977.61
2019-03-03T17:00:18.776Z,99971.14
2019-03-03T17:02:44.905Z,99971.18
2019-03-03T17:05:11.854Z,99966.91
2019-03-03T17:07:38.760Z,99954.80
2019-03-03T17:10:08.148Z,99955.72
2019-03-03T17:12:35.119Z,99948.85
2019-03-03T17:15:01.060Z,99952.77
2019-03-03T17:17:27.525Z,99948.45
2019-03-03T17:19:53.487Z,99936.34
2019-03-03T17:22:19.444Z,99951.56
2019-03-03T17:24:45.433Z,99950.73
2019-03-03T17:27:11.286Z,99947.28
2019-03-03T17:29:37.137Z,99938.64
2019-03-03T17:32:03.647Z,99942.15
2019-03-03T17:34:29.633Z,99938.27
2019-03-03T17:36:55.525Z,99936.97
2019-03-03T17:39:21.633Z,99937.86
2019-03-03T17:41:47.492Z,99934.80
2019-03-03T17:44:13.352Z,99936.97
2019-03-03T17:46:39.376Z,99925.75
2019-03-03T17:49:05.222Z,99927.95
2019-03-03T17:51:31.211Z,99927.11
2019-03-03T17:53:57.168Z,99916.76
2019-03-03T17:56:23.029Z,99921.58
2019-03-03T17:58:48.903Z,99928.59
2019-03-03T18:01:14.966Z,99916.56
2019-03-03T18:03:41.383Z,99918.75
2019-03-03T18:06:08.016Z,99917.05
2019-03-03T18:08:34.004Z,99919.23
2019-03-03T18:10:59.870Z,99922.31
2019-03-03T18:13:25.752Z,99923.20
2019-03-03T18:15:51.868Z,99919.30
2019-03-03T18:18:17.710Z,99912.38
2019-03-03T18:20:43.566Z,99911.08
2019-03-03T18:23:09.724Z,99913.27
2019-03-03T18:25:35.674Z,99911.11
2019-03-03T18:28:01.506Z,99913.30
2019-03-03T18:30:27.757Z,99912.89
2019-03-03T18:32:53.722Z,99910.72
2019-03-03T18:35:21.859Z,99907.23
2019-03-03T18:37:48.154Z,99905.91
2019-03-03T18:40:18.209Z,99812.98
2019-03-03T18:42:44.187Z,99895.98
2019-03-03T18:45:12.222Z,99898.58
2019-03-03T18:47:38.489Z,99902.03
2019-03-03T18:50:06.250Z,99897.73
2019-03-03T18:52:32.294Z,99886.92
2019-03-03T18:54:58.173Z,99885.63
2019-03-03T18:57:24.033Z,99889.53
2019-03-03T18:59:50.093Z,99887.81
2019-03-03T19:07:48.766Z,99879.16
2019-03-03T19:10:15.710Z,99876.58
2019-03-03T19:12:41.600Z,99874.42
2019-03-03T19:15:09.238Z,99883.06
2019-03-03T19:23:54.097Z,99877.86
2019-03-03T19:26:19.958Z,99877.02
2019-03-03T19:28:45.798Z,99875.72
2019-03-03T19:31:11.751Z,99875.27
2019-03-03T19:33:39.534Z,99871.84
2019-03-03T19:36:05.594Z,99869.69
2019-03-03T19:38:31.652Z,99864.48
2019-03-03T19:40:57.634Z,99861.45
2019-03-03T19:43:23.878Z,99861.45
2019-03-03T19:45:51.538Z,99855.39
2019-03-03T19:48:17.515Z,99844.12
2019-03-03T19:50:43.560Z,99847.18
2019-03-03T19:53:09.585Z,99854.09
2019-03-03T19:55:35.455Z,99843.70
2019-03-03T19:58:01.408Z,99841.98
2019-03-03T20:00:35.366Z,99840.23
2019-03-03T20:02:56.729Z,99842.43
2019-03-03T20:05:22.780Z,99844.16
2019-03-03T20:07:48.967Z,99841.20
2019-03-03T20:10:15.105Z,99838.65
2019-03-03T20:12:41.063Z,99831.77
2019-03-03T20:15:08.534Z,99827.02
2019-03-03T20:17:34.388Z,99828.33
2019-03-03T20:20:00.702Z,99829.20
2019-03-03T20:22:27.217Z,99824.00
2019-03-03T20:24:53.407Z,99817.55
2019-03-03T20:27:19.258Z,99817.11
2019-03-03T20:29:45.409Z,99814.09
2019-03-03T20:32:11.275Z,99811.08
2019-03-03T20:34:37.128Z,99809.78
2019-03-03T20:37:03.415Z,99817.11
2019-03-03T20:39:29.258Z,99818.43
2019-03-03T20:41:55.239Z,99808.05
2019-03-03T20:44:21.265Z,99804.22
2019-03-03T20:46:47.131Z,99809.00
2019-03-03T20:49:13.107Z,99798.61
2019-03-03T20:51:39.325Z,99796.42
2019-03-03T20:54:05.171Z,99796.02
2019-03-03T20:56:31.038Z,99796.83
2019-03-03T20:58:57.058Z,99789.48
2019-03-03T21:01:23.030Z,99792.09
2019-03-03T21:03:48.890Z,99792.06
2019-03-03T21:06:15.071Z,99785.13
2019-03-03T21:08:40.909Z,99786.86
2019-03-03T21:11:06.855Z,99774.75
2019-03-03T21:13:32.993Z,99772.13
2019-03-03T21:15:58.837Z,99766.94
2019-03-03T21:18:24.683Z,99765.64
2019-03-03T21:20:50.925Z,99771.70
2019-03-03T21:23:16.780Z,99764.34
2019-03-03T21:25:44.544Z,99764.36
2019-03-03T21:28:10.594Z,99761.77
2019-03-03T21:30:36.435Z,99749.64
2019-03-03T21:33:02.297Z,99756.11
2019-03-03T21:35:28.272Z,99755.69
2019-03-03T21:37:54.170Z,99754.78
2019-03-03T21:40:23.570Z,99752.64
2019-03-03T21:42:49.840Z,99747.45
2019-03-03T21:45:17.582Z,99753.95
2019-03-03T21:47:43.441Z,99747.91
2019-03-03T21:50:16.471Z,99751.80
2019-03-03T21:52:42.430Z,99748.78
2019-03-03T21:55:09.291Z,99745.33
2019-03-03T21:57:35.468Z,99733.65
2019-03-03T22:00:01.317Z,99730.59
2019-03-03T22:02:27.295Z,99730.16
2019-03-03T22:04:53.467Z,99736.63
2019-03-03T22:07:19.331Z,99735.34
2019-03-03T22:09:45.264Z,99735.80
2019-03-03T22:12:11.153Z,99730.16
2019-03-03T22:14:37.007Z,99734.48
2019-03-03T22:17:03.009Z,99726.23
2019-03-03T22:19:29.061Z,99723.61
2019-03-03T22:21:54.906Z,99721.03
2019-03-03T22:24:20.812Z,99716.30
2019-03-03T22:26:46.842Z,99721.52
2019-03-03T22:29:12.800Z,99722.39
2019-03-03T22:31:38.654Z,99717.63
2019-03-03T22:34:04.631Z,99712.89
2019-03-03T22:36:30.465Z,99709.00
2019-03-03T22:38:56.551Z,99710.69
2019-03-03T22:41:22.627Z,99708.07
2019-03-03T22:43:48.484Z,99711.97
2019-03-03T22:46:14.337Z,99711.09
2019-03-03T22:48:40.492Z,99706.73
2019-03-03T22:51:06.373Z,99710.61
2019-03-03T22:53:32.226Z,99712.33
2019-03-03T22:55:58.274Z,99711.02
2019-03-03T22:58:24.256Z,99712.30
2019-03-03T23:00:57.627Z,99709.23
2019-03-03T23:03:25.485Z,99711.83
2019-03-03T23:06:05.407Z,99708.40
2019-03-03T23:08:33.558Z,99709.70
2019-03-03T23:11:01.331Z,99706.27
2019-03-03T23:13:29.088Z,99706.30
2019-03-03T23:15:59.808Z,99707.64
2019-03-03T23:18:30.557Z,99704.20
2019-03-03T23:21:04.431Z,99706.36
2019-03-03T23:23:41.117Z,99702.90
2019-03-03T23:26:16.276Z,99706.36
2019-03-03T23:28:34.811Z,99692.53
2019-03-03T23:31:00.692Z,99696.45
2019-03-03T23:33:26.767Z,99693.83
2019-03-03T23:35:52.735Z,99686.45
2019-03-03T23:38:18.598Z,99686.45
2019-03-03T23:40:44.726Z,99684.70
2019-03-03T23:43:10.666Z,99686.44
2019-03-03T23:45:36.514Z,99684.68
2019-03-03T23:48:02.986Z,99685.53
2019-03-03T23:50:28.853Z,99679.45
2019-03-03T23:52:54.723Z,99671.23
2019-03-03T23:55:20.893Z,99670.36
2019-03-03T23:57:46.730Z,99666.92
